sensor_id;sensor_type;location;lat;lon;timestamp;pressure;altitude;pressure_sealevel;temperature;humidity
33185;BME280;19550;42.872;25.494;2023-07-22T00:00:57;96168.28;;;23.48;98.11
33185;BME280;19550;42.872;25.494;2023-07-22T00:03:24;96172.34;;;23.51;98.33
33185;BME280;19550;42.872;25.494;2023-07-22T00:06:02;96170.28;;;23.55;98.38
33185;BME280;19550;42.872;25.494;2023-07-22T00:08:29;96174.78;;;23.34;100.00
33185;BME280;19550;42.872;25.494;2023-07-22T00:10:56;96173.16;;;23.37;99.01
33185;BME280;19550;42.872;25.494;2023-07-22T00:13:24;96179.59;;;23.52;99.04
33185;BME280;19550;42.872;25.494;2023-07-22T00:15:52;96169.47;;;23.54;98.64
33185;BME280;19550;42.872;25.494;2023-07-22T00:18:19;96170.31;;;23.51;99.27
33185;BME280;19550;42.872;25.494;2023-07-22T00:20:45;96168.72;;;23.40;100.00
33185;BME280;19550;42.872;25.494;2023-07-22T00:23:12;96165.94;;;23.25;100.00
33185;BME280;19550;42.872;25.494;2023-07-22T00:25:40;96161.50;;;23.24;100.00
33185;BME280;19550;42.872;25.494;2023-07-22T00:28:07;96160.63;;;23.34;100.00
33185;BME280;19550;42.872;25.494;2023-07-22T00:30:35;96153.84;;;23.18;100.00
33185;BME280;19550;42.872;25.494;2023-07-22T00:33:02;96154.97;;;23.34;100.00
33185;BME280;19550;42.872;25.494;2023-07-22T00:35:29;96155.03;;;23.24;100.00
33185;BME280;19550;42.872;25.494;2023-07-22T00:37:57;96155.38;;;23.36;100.00
33185;BME280;19550;42.872;25.494;2023-07-22T00:40:24;96150.91;;;23.53;100.00
33185;BME280;19550;42.872;25.494;2023-07-22T00:42:51;96140.28;;;23.71;99.94
33185;BME280;19550;42.872;25.494;2023-07-22T00:45:18;96139.81;;;23.80;99.34
33185;BME280;19550;42.872;25.494;2023-07-22T00:47:46;96131.75;;;23.79;100.00
33185;BME280;19550;42.872;25.494;2023-07-22T00:50:14;96139.81;;;23.84;100.00
33185;BME280;19550;42.872;25.494;2023-07-22T00:52:41;96134.97;;;23.84;100.00
33185;BME280;19550;42.872;25.494;2023-07-22T00:55:08;96136.22;;;23.80;100.00
33185;BME280;19550;42.872;25.494;2023-07-22T00:57:36;96140.75;;;23.66;100.00
33185;BME280;19550;42.872;25.494;2023-07-22T01:00:04;96136.28;;;23.65;100.00
33185;BME280;19550;42.872;25.494;2023-07-22T01:02:31;96154.44;;;23.68;100.00
33185;BME280;19550;42.872;25.494;2023-07-22T01:05:01;96158.47;;;23.77;100.00
33185;BME280;19550;42.872;25.494;2023-07-22T01:07:28;96208.59;;;23.77;100.00
33185;BME280;19550;42.872;25.494;2023-07-22T01:09:56;96306.50;;;23.71;100.00
33185;BME280;19550;42.872;25.494;2023-07-22T01:12:24;96305.22;;;23.93;98.83
33185;BME280;19550;42.872;25.494;2023-07-22T01:14:51;96248.09;;;24.12;98.25
33185;BME280;19550;42.872;25.494;2023-07-22T01:17:18;96254.50;;;24.24;97.33
33185;BME280;19550;42.872;25.494;2023-07-22T01:19:46;96275.03;;;24.42;95.79
33185;BME280;19550;42.872;25.494;2023-07-22T01:22:16;96302.19;;;24.39;97.46
33185;BME280;19550;42.872;25.494;2023-07-22T01:24:45;96292.91;;;24.35;99.83
33185;BME280;19550;42.872;25.494;2023-07-22T01:27:12;96284.47;;;24.25;99.14
33185;BME280;19550;42.872;25.494;2023-07-22T01:29:39;96288.50;;;24.16;100.00
33185;BME280;19550;42.872;25.494;2023-07-22T01:32:06;96275.56;;;24.15;100.00
33185;BME280;19550;42.872;25.494;2023-07-22T01:34:34;96267.06;;;24.15;100.00
33185;BME280;19550;42.872;25.494;2023-07-22T01:37:00;96277.63;;;24.08;100.00
33185;BME280;19550;42.872;25.494;2023-07-22T01:39:28;96275.22;;;24.03;100.00
33185;BME280;19550;42.872;25.494;2023-07-22T01:41:56;96282.94;;;23.95;100.00
33185;BME280;19550;42.872;25.494;2023-07-22T01:44:23;96289.84;;;23.87;100.00
33185;BME280;19550;42.872;25.494;2023-07-22T01:46:50;96297.97;;;23.85;100.00
33185;BME280;19550;42.872;25.494;2023-07-22T01:49:17;96297.59;;;23.72;100.00
33185;BME280;19550;42.872;25.494;2023-07-22T01:51:44;96303.66;;;23.67;100.00
33185;BME280;19550;42.872;25.494;2023-07-22T01:54:11;96294.34;;;23.74;100.00
33185;BME280;19550;42.872;25.494;2023-07-22T01:56:38;96300.44;;;23.65;100.00
33185;BME280;19550;42.872;25.494;2023-07-22T01:59:07;96305.72;;;23.60;100.00
33185;BME280;19550;42.872;25.494;2023-07-22T02:01:34;96301.25;;;23.55;100.00
33185;BME280;19550;42.872;25.494;2023-07-22T02:04:01;96288.34;;;23.36;100.00
33185;BME280;19550;42.872;25.494;2023-07-22T02:06:27;96307.34;;;23.22;100.00
33185;BME280;19550;42.872;25.494;2023-07-22T02:08:54;96309.78;;;23.20;100.00
33185;BME280;19550;42.872;25.494;2023-07-22T02:11:22;96312.22;;;23.00;100.00
33185;BME280;19550;42.872;25.494;2023-07-22T02:13:49;96321.09;;;22.98;100.00
33185;BME280;19550;42.872;25.494;2023-07-22T02:16:17;96317.88;;;22.86;100.00
33185;BME280;19550;42.872;25.494;2023-07-22T02:18:44;96310.59;;;22.78;100.00
33185;BME280;19550;42.872;25.494;2023-07-22T02:21:11;96301.25;;;22.67;100.00
33185;BME280;19550;42.872;25.494;2023-07-22T02:23:38;96310.13;;;22.69;100.00
33185;BME280;19550;42.872;25.494;2023-07-22T02:26:04;96311.31;;;22.57;100.00
33185;BME280;19550;42.872;25.494;2023-07-22T02:28:31;96311.31;;;22.50;100.00
33185;BME280;19550;42.872;25.494;2023-07-22T02:31:01;96312.09;;;22.43;100.00
33185;BME280;19550;42.872;25.494;2023-07-22T02:33:32;96307.66;;;22.42;100.00
33185;BME280;19550;42.872;25.494;2023-07-22T02:35:59;96310.09;;;22.47;100.00
33185;BME280;19550;42.872;25.494;2023-07-22T02:38:26;96300.81;;;22.43;100.00
33185;BME280;19550;42.872;25.494;2023-07-22T02:40:53;96304.06;;;22.45;100.00
33185;BME280;19550;42.872;25.494;2023-07-22T02:43:20;96297.97;;;22.43;100.00
33185;BME280;19550;42.872;25.494;2023-07-22T02:45:47;96302.00;;;22.32;100.00
33185;BME280;19550;42.872;25.494;2023-07-22T02:48:14;96297.13;;;22.25;100.00
33185;BME280;19550;42.872;25.494;2023-07-22T02:50:42;96290.63;;;22.07;100.00
33185;BME280;19550;42.872;25.494;2023-07-22T02:53:09;96309.56;;;21.99;100.00
33185;BME280;19550;42.872;25.494;2023-07-22T02:55:36;96311.09;;;21.90;100.00
33185;BME280;19550;42.872;25.494;2023-07-22T02:58:02;96322.78;;;21.92;100.00
33185;BME280;19550;42.872;25.494;2023-07-22T03:00:31;96311.56;;;22.02;100.00
33185;BME280;19550;42.872;25.494;2023-07-22T03:02:58;96311.50;;;21.95;100.00
33185;BME280;19550;42.872;25.494;2023-07-22T03:05:26;96309.50;;;21.92;100.00
33185;BME280;19550;42.872;25.494;2023-07-22T03:07:55;96306.72;;;21.96;100.00
33185;BME280;19550;42.872;25.494;2023-07-22T03:10:22;96290.94;;;21.95;100.00
33185;BME280;19550;42.872;25.494;2023-07-22T03:12:51;96287.31;;;21.94;100.00
33185;BME280;19550;42.872;25.494;2023-07-22T03:15:20;96287.69;;;21.86;100.00
33185;BME280;19550;42.872;25.494;2023-07-22T03:17:47;96290.88;;;21.77;100.00
33185;BME280;19550;42.872;25.494;2023-07-22T03:20:14;96298.94;;;21.82;100.00
33185;BME280;19550;42.872;25.494;2023-07-22T03:22:42;96299.78;;;21.86;100.00
33185;BME280;19550;42.872;25.494;2023-07-22T03:25:10;96315.53;;;21.87;100.00
33185;BME280;19550;42.872;25.494;2023-07-22T03:27:38;96319.94;;;21.85;100.00
33185;BME280;19550;42.872;25.494;2023-07-22T03:30:06;96319.50;;;21.79;100.00
33185;BME280;19550;42.872;25.494;2023-07-22T03:32:36;96306.25;;;21.90;100.00
33185;BME280;19550;42.872;25.494;2023-07-22T03:35:03;96307.13;;;21.98;100.00
33185;BME280;19550;42.872;25.494;2023-07-22T03:37:29;96295.84;;;22.08;100.00
33185;BME280;19550;42.872;25.494;2023-07-22T03:39:57;96299.94;;;22.22;100.00
33185;BME280;19550;42.872;25.494;2023-07-22T03:42:25;96292.72;;;22.38;100.00
33185;BME280;19550;42.872;25.494;2023-07-22T03:44:52;96295.97;;;22.44;100.00
33185;BME280;19550;42.872;25.494;2023-07-22T03:47:19;96285.47;;;22.34;100.00
33185;BME280;19550;42.872;25.494;2023-07-22T03:49:46;96290.31;;;22.33;100.00
33185;BME280;19550;42.872;25.494;2023-07-22T03:52:13;96293.91;;;22.30;100.00
33185;BME280;19550;42.872;25.494;2023-07-22T03:54:43;96298.78;;;22.37;100.00
33185;BME280;19550;42.872;25.494;2023-07-22T03:57:10;96296.75;;;22.41;100.00
33185;BME280;19550;42.872;25.494;2023-07-22T03:59:39;96296.78;;;22.48;100.00
33185;BME280;19550;42.872;25.494;2023-07-22T04:02:05;96303.25;;;22.55;100.00
33185;BME280;19550;42.872;25.494;2023-07-22T04:04:32;96298.00;;;22.68;100.00
33185;BME280;19550;42.872;25.494;2023-07-22T04:06:59;96302.09;;;22.78;100.00
33185;BME280;19550;42.872;25.494;2023-07-22T04:09:27;96301.28;;;22.81;100.00
33185;BME280;19550;42.872;25.494;2023-07-22T04:11:54;96298.91;;;22.93;100.00
33185;BME280;19550;42.872;25.494;2023-07-22T04:14:21;96289.97;;;23.02;100.00
33185;BME280;19550;42.872;25.494;2023-07-22T04:16:49;96293.63;;;23.06;100.00
33185;BME280;19550;42.872;25.494;2023-07-22T04:19:16;96301.28;;;23.16;100.00
33185;BME280;19550;42.872;25.494;2023-07-22T04:21:43;96297.66;;;23.26;100.00
33185;BME280;19550;42.872;25.494;2023-07-22T04:24:10;96298.84;;;23.29;100.00
33185;BME280;19550;42.872;25.494;2023-07-22T04:26:37;96303.28;;;23.37;100.00
33185;BME280;19550;42.872;25.494;2023-07-22T04:29:04;96306.13;;;23.48;100.00
33185;BME280;19550;42.872;25.494;2023-07-22T04:31:32;96314.16;;;23.67;100.00
33185;BME280;19550;42.872;25.494;2023-07-22T04:34:01;96326.25;;;23.82;100.00
33185;BME280;19550;42.872;25.494;2023-07-22T04:36:27;96329.09;;;23.85;100.00
33185;BME280;19550;42.872;25.494;2023-07-22T04:38:54;96326.25;;;23.89;100.00
33185;BME280;19550;42.872;25.494;2023-07-22T04:41:21;96326.63;;;23.94;100.00
33185;BME280;19550;42.872;25.494;2023-07-22T04:43:48;96322.94;;;24.08;99.79
33185;BME280;19550;42.872;25.494;2023-07-22T04:46:16;96323.31;;;24.17;99.75
33185;BME280;19550;42.872;25.494;2023-07-22T04:48:42;96335.44;;;24.28;99.22
33185;BME280;19550;42.872;25.494;2023-07-22T04:51:11;96336.63;;;24.34;98.15
33185;BME280;19550;42.872;25.494;2023-07-22T04:53:37;96341.44;;;24.44;97.83
33185;BME280;19550;42.872;25.494;2023-07-22T04:56:04;96340.56;;;24.54;97.16
33185;BME280;19550;42.872;25.494;2023-07-22T04:58:31;96342.50;;;24.72;96.63
33185;BME280;19550;42.872;25.494;2023-07-22T05:00:58;96337.16;;;24.84;95.00
33185;BME280;19550;42.872;25.494;2023-07-22T05:03:25;96337.53;;;24.86;95.30
33185;BME280;19550;42.872;25.494;2023-07-22T05:05:51;96331.47;;;24.91;95.68
33185;BME280;19550;42.872;25.494;2023-07-22T05:08:20;96336.31;;;24.87;96.06
33185;BME280;19550;42.872;25.494;2023-07-22T05:10:46;96333.06;;;24.89;97.23
33185;BME280;19550;42.872;25.494;2023-07-22T05:13:13;96328.56;;;24.99;97.96
33185;BME280;19550;42.872;25.494;2023-07-22T05:15:40;96331.66;;;25.15;96.12
33185;BME280;19550;42.872;25.494;2023-07-22T05:18:07;96342.50;;;25.27;95.66
33185;BME280;19550;42.872;25.494;2023-07-22T05:20:34;96337.59;;;25.34;94.43
33185;BME280;19550;42.872;25.494;2023-07-22T05:23:01;96340.34;;;25.45;91.74
33185;BME280;19550;42.872;25.494;2023-07-22T05:25:29;96339.03;;;25.53;90.39
33185;BME280;19550;42.872;25.494;2023-07-22T05:27:56;96343.38;;;25.68;89.82
33185;BME280;19550;42.872;25.494;2023-07-22T05:30:22;96346.19;;;25.72;90.57
33185;BME280;19550;42.872;25.494;2023-07-22T05:32:53;96345.19;;;25.89;90.61
33185;BME280;19550;42.872;25.494;2023-07-22T05:35:20;96346.59;;;26.11;90.43
33185;BME280;19550;42.872;25.494;2023-07-22T05:37:47;96347.59;;;26.32;89.64
33185;BME280;19550;42.872;25.494;2023-07-22T05:40:14;96344.03;;;26.55;88.78
33185;BME280;19550;42.872;25.494;2023-07-22T05:42:42;96356.09;;;26.66;87.68
33185;BME280;19550;42.872;25.494;2023-07-22T05:45:09;96364.84;;;26.78;86.20
33185;BME280;19550;42.872;25.494;2023-07-22T05:47:39;96359.31;;;26.98;85.57
33185;BME280;19550;42.872;25.494;2023-07-22T05:50:06;96369.06;;;27.24;83.61
33185;BME280;19550;42.872;25.494;2023-07-22T05:52:33;96373.63;;;27.45;80.40
33185;BME280;19550;42.872;25.494;2023-07-22T05:55:00;96366.94;;;27.55;80.29
33185;BME280;19550;42.872;25.494;2023-07-22T05:57:27;96383.41;;;27.67;81.24
33185;BME280;19550;42.872;25.494;2023-07-22T05:59:55;96378.34;;;27.55;78.31
33185;BME280;19550;42.872;25.494;2023-07-22T06:02:22;96371.56;;;27.72;79.21
33185;BME280;19550;42.872;25.494;2023-07-22T06:04:49;96376.13;;;27.89;78.63
33185;BME280;19550;42.872;25.494;2023-07-22T06:07:16;96383.47;;;28.10;76.60
33185;BME280;19550;42.872;25.494;2023-07-22T06:09:44;96377.22;;;28.19;76.76
33185;BME280;19550;42.872;25.494;2023-07-22T06:12:11;96384.63;;;28.13;77.69
33185;BME280;19550;42.872;25.494;2023-07-22T06:14:38;96378.97;;;28.32;77.09
33185;BME280;19550;42.872;25.494;2023-07-22T06:17:06;96374.69;;;28.44;77.12
33185;BME280;19550;42.872;25.494;2023-07-22T06:19:33;96375.91;;;28.43;76.83
33185;BME280;19550;42.872;25.494;2023-07-22T06:22:00;96386.94;;;28.61;72.58
33185;BME280;19550;42.872;25.494;2023-07-22T06:24:27;96390.84;;;28.70;73.44
33185;BME280;19550;42.872;25.494;2023-07-22T06:26:53;96400.22;;;28.91;74.11
33185;BME280;19550;42.872;25.494;2023-07-22T06:29:20;96398.59;;;28.90;73.79
33185;BME280;19550;42.872;25.494;2023-07-22T06:31:47;96397.22;;;29.14;73.33
33185;BME280;19550;42.872;25.494;2023-07-22T06:34:15;96395.72;;;29.25;72.88
33185;BME280;19550;42.872;25.494;2023-07-22T06:36:42;96395.69;;;29.45;72.92
33185;BME280;19550;42.872;25.494;2023-07-22T06:39:09;96394.91;;;29.61;72.55
33185;BME280;19550;42.872;25.494;2023-07-22T06:41:36;96394.47;;;29.62;70.44
33185;BME280;19550;42.872;25.494;2023-07-22T06:44:03;96398.56;;;29.61;73.50
33185;BME280;19550;42.872;25.494;2023-07-22T06:46:29;96394.81;;;29.81;73.70
33185;BME280;19550;42.872;25.494;2023-07-22T06:48:59;96406.97;;;30.01;67.48
33185;BME280;19550;42.872;25.494;2023-07-22T06:51:27;96389.13;;;29.97;68.09
33185;BME280;19550;42.872;25.494;2023-07-22T06:53:54;96396.09;;;29.96;67.92
33185;BME280;19550;42.872;25.494;2023-07-22T06:56:21;96390.63;;;30.01;68.12
33185;BME280;19550;42.872;25.494;2023-07-22T06:58:47;96399.38;;;30.11;66.58
33185;BME280;19550;42.872;25.494;2023-07-22T07:01:14;96404.25;;;30.26;65.92
33185;BME280;19550;42.872;25.494;2023-07-22T07:03:41;96412.63;;;30.33;64.88
33185;BME280;19550;42.872;25.494;2023-07-22T07:06:08;96426.25;;;30.13;64.19
33185;BME280;19550;42.872;25.494;2023-07-22T07:08:36;96412.13;;;30.22;64.80
33185;BME280;19550;42.872;25.494;2023-07-22T07:11:03;96419.16;;;30.34;63.83
33185;BME280;19550;42.872;25.494;2023-07-22T07:13:30;96417.72;;;30.42;62.20
33185;BME280;19550;42.872;25.494;2023-07-22T07:16:20;96427.34;;;30.48;61.93
33185;BME280;19550;42.872;25.494;2023-07-22T07:18:47;96438.09;;;30.44;63.56
33185;BME280;19550;42.872;25.494;2023-07-22T07:21:14;96434.06;;;30.58;63.47
33185;BME280;19550;42.872;25.494;2023-07-22T07:23:42;96443.91;;;30.40;63.51
33185;BME280;19550;42.872;25.494;2023-07-22T07:26:09;96445.56;;;30.70;64.27
33185;BME280;19550;42.872;25.494;2023-07-22T07:28:36;96457.72;;;30.74;60.38
33185;BME280;19550;42.872;25.494;2023-07-22T07:31:02;96448.25;;;30.77;59.97
33185;BME280;19550;42.872;25.494;2023-07-22T07:33:29;96466.06;;;30.69;58.61
33185;BME280;19550;42.872;25.494;2023-07-22T07:35:56;96454.63;;;30.53;58.41
33185;BME280;19550;42.872;25.494;2023-07-22T07:38:23;96459.22;;;30.50;57.96
33185;BME280;19550;42.872;25.494;2023-07-22T07:40:52;96452.06;;;30.42;58.08
33185;BME280;19550;42.872;25.494;2023-07-22T07:43:19;96451.31;;;30.70;57.61
33185;BME280;19550;42.872;25.494;2023-07-22T07:45:46;96441.38;;;30.88;58.01
33185;BME280;19550;42.872;25.494;2023-07-22T07:48:13;96437.13;;;31.08;56.00
33185;BME280;19550;42.872;25.494;2023-07-22T07:50:41;96447.69;;;31.24;57.59
33185;BME280;19550;42.872;25.494;2023-07-22T07:53:08;96442.41;;;31.23;55.26
33185;BME280;19550;42.872;25.494;2023-07-22T07:55:35;96433.50;;;31.46;55.33
33185;BME280;19550;42.872;25.494;2023-07-22T07:58:03;96435.44;;;31.49;56.35
33185;BME280;19550;42.872;25.494;2023-07-22T08:00:30;96443.38;;;31.57;54.97
33185;BME280;19550;42.872;25.494;2023-07-22T08:02:56;96435.25;;;31.69;52.62
33185;BME280;19550;42.872;25.494;2023-07-22T08:05:23;96437.97;;;31.34;51.73
33185;BME280;19550;42.872;25.494;2023-07-22T08:07:50;96436.47;;;31.55;53.03
33185;BME280;19550;42.872;25.494;2023-07-22T08:10:17;96438.91;;;31.56;51.69
33185;BME280;19550;42.872;25.494;2023-07-22T08:12:44;96435.00;;;31.38;52.68
33185;BME280;19550;42.872;25.494;2023-07-22T08:15:12;96432.22;;;31.47;53.09
33185;BME280;19550;42.872;25.494;2023-07-22T08:17:40;96427.56;;;31.66;50.55
33185;BME280;19550;42.872;25.494;2023-07-22T08:20:07;96418.59;;;31.51;50.47
33185;BME280;19550;42.872;25.494;2023-07-22T08:22:35;96417.31;;;31.27;54.42
33185;BME280;19550;42.872;25.494;2023-07-22T08:25:03;96415.25;;;31.27;54.50
33185;BME280;19550;42.872;25.494;2023-07-22T08:27:30;96411.94;;;31.29;51.34
33185;BME280;19550;42.872;25.494;2023-07-22T08:29:56;96396.72;;;31.70;52.05
33185;BME280;19550;42.872;25.494;2023-07-22T08:32:24;96395.44;;;31.83;52.52
33185;BME280;19550;42.872;25.494;2023-07-22T08:34:51;96391.28;;;31.97;49.95
33185;BME280;19550;42.872;25.494;2023-07-22T08:37:18;96389.78;;;32.18;51.20
33185;BME280;19550;42.872;25.494;2023-07-22T08:39:45;96384.31;;;32.32;51.14
33185;BME280;19550;42.872;25.494;2023-07-22T08:42:13;96388.50;;;32.06;49.54
33185;BME280;19550;42.872;25.494;2023-07-22T08:44:42;96376.44;;;32.24;49.43
33185;BME280;19550;42.872;25.494;2023-07-22T08:47:14;96381.69;;;31.91;50.02
33185;BME280;19550;42.872;25.494;2023-07-22T08:49:45;96376.22;;;32.18;50.00
33185;BME280;19550;42.872;25.494;2023-07-22T08:52:14;96380.69;;;32.19;48.44
33185;BME280;19550;42.872;25.494;2023-07-22T08:54:41;96380.59;;;32.45;48.12
33185;BME280;19550;42.872;25.494;2023-07-22T08:57:11;96371.94;;;32.57;48.05
33185;BME280;19550;42.872;25.494;2023-07-22T08:59:38;96368.44;;;32.41;50.00
33185;BME280;19550;42.872;25.494;2023-07-22T09:02:08;96370.47;;;32.53;48.01
33185;BME280;19550;42.872;25.494;2023-07-22T09:04:36;96367.78;;;32.58;48.57
33185;BME280;19550;42.872;25.494;2023-07-22T09:07:05;96374.88;;;32.66;47.00
33185;BME280;19550;42.872;25.494;2023-07-22T09:09:32;96373.28;;;32.87;46.21
33185;BME280;19550;42.872;25.494;2023-07-22T09:12:00;96376.63;;;32.86;45.95
33185;BME280;19550;42.872;25.494;2023-07-22T09:14:28;96370.78;;;32.98;46.96
33185;BME280;19550;42.872;25.494;2023-07-22T09:16:57;96367.13;;;33.20;46.57
33185;BME280;19550;42.872;25.494;2023-07-22T09:19:24;96363.56;;;33.37;46.13
33185;BME280;19550;42.872;25.494;2023-07-22T09:21:51;96355.88;;;33.34;45.98
33185;BME280;19550;42.872;25.494;2023-07-22T09:24:24;96352.94;;;33.25;47.05
33185;BME280;19550;42.872;25.494;2023-07-22T09:26:51;96348.91;;;33.53;46.68
33185;BME280;19550;42.872;25.494;2023-07-22T09:29:32;96349.88;;;33.60;46.63
33185;BME280;19550;42.872;25.494;2023-07-22T09:32:00;96357.75;;;33.68;46.95
33185;BME280;19550;42.872;25.494;2023-07-22T09:34:27;96354.19;;;33.55;46.35
33185;BME280;19550;42.872;25.494;2023-07-22T09:36:56;96351.66;;;33.66;46.02
33185;BME280;19550;42.872;25.494;2023-07-22T09:39:27;96349.34;;;33.83;46.68
33185;BME280;19550;42.872;25.494;2023-07-22T09:41:53;96340.09;;;33.88;46.33
33185;BME280;19550;42.872;25.494;2023-07-22T09:44:20;96329.88;;;34.05;46.00
33185;BME280;19550;42.872;25.494;2023-07-22T09:46:48;96314.34;;;33.84;46.88
33185;BME280;19550;42.872;25.494;2023-07-22T09:49:16;96327.28;;;33.71;45.57
33185;BME280;19550;42.872;25.494;2023-07-22T09:51:44;96332.06;;;33.74;46.67
33185;BME280;19550;42.872;25.494;2023-07-22T09:54:11;96323.75;;;33.85;50.03
33185;BME280;19550;42.872;25.494;2023-07-22T09:56:49;96318.72;;;34.16;46.68
33185;BME280;19550;42.872;25.494;2023-07-22T09:59:18;96310.22;;;34.13;45.83
33185;BME280;19550;42.872;25.494;2023-07-22T10:01:46;96307.38;;;34.40;46.39
33185;BME280;19550;42.872;25.494;2023-07-22T10:04:16;96303.22;;;34.50;45.34
33185;BME280;19550;42.872;25.494;2023-07-22T10:06:43;96299.69;;;34.74;45.06
33185;BME280;19550;42.872;25.494;2023-07-22T10:09:11;96300.97;;;35.24;45.86
33185;BME280;19550;42.872;25.494;2023-07-22T10:11:39;96304.47;;;35.37;42.63
33185;BME280;19550;42.872;25.494;2023-07-22T10:14:08;96306.44;;;35.13;42.37
33185;BME280;19550;42.872;25.494;2023-07-22T10:16:35;96299.75;;;35.06;43.53
33185;BME280;19550;42.872;25.494;2023-07-22T10:19:04;96297.97;;;35.09;44.90
33185;BME280;19550;42.872;25.494;2023-07-22T10:21:32;96304.94;;;35.35;44.97
33185;BME280;19550;42.872;25.494;2023-07-22T10:24:01;96307.72;;;35.21;43.24
33185;BME280;19550;42.872;25.494;2023-07-22T10:26:29;96318.97;;;35.00;44.85
33185;BME280;19550;42.872;25.494;2023-07-22T10:28:56;96324.66;;;35.37;47.70
33185;BME280;19550;42.872;25.494;2023-07-22T10:31:30;96319.19;;;35.39;44.38
33185;BME280;19550;42.872;25.494;2023-07-22T10:33:57;96313.06;;;35.46;45.29
33185;BME280;19550;42.872;25.494;2023-07-22T10:36:28;96312.25;;;35.03;46.59
33185;BME280;19550;42.872;25.494;2023-07-22T10:38:56;96314.78;;;35.11;46.79
33185;BME280;19550;42.872;25.494;2023-07-22T10:41:23;96314.91;;;35.25;45.13
33185;BME280;19550;42.872;25.494;2023-07-22T10:43:54;96308.94;;;35.71;44.20
33185;BME280;19550;42.872;25.494;2023-07-22T10:46:33;96311.69;;;36.22;44.27
33185;BME280;19550;42.872;25.494;2023-07-22T10:49:11;96314.53;;;35.98;43.40
33185;BME280;19550;42.872;25.494;2023-07-22T10:51:38;96320.50;;;35.95;44.07
33185;BME280;19550;42.872;25.494;2023-07-22T10:54:11;96311.91;;;36.09;45.55
33185;BME280;19550;42.872;25.494;2023-07-22T10:56:40;96321.97;;;36.14;44.26
33185;BME280;19550;42.872;25.494;2023-07-22T10:59:10;96323.38;;;35.71;43.68
33185;BME280;19550;42.872;25.494;2023-07-22T11:01:38;96315.47;;;36.28;44.28
33185;BME280;19550;42.872;25.494;2023-07-22T11:04:24;96327.41;;;36.21;43.38
33185;BME280;19550;42.872;25.494;2023-07-22T11:06:57;96316.59;;;36.45;42.87
33185;BME280;19550;42.872;25.494;2023-07-22T11:09:40;96317.16;;;36.20;42.98
33185;BME280;19550;42.872;25.494;2023-07-22T11:12:14;96322.88;;;36.44;42.12
33185;BME280;19550;42.872;25.494;2023-07-22T11:14:47;96320.78;;;36.68;42.93
33185;BME280;19550;42.872;25.494;2023-07-22T11:17:16;96324.47;;;36.98;43.18
33185;BME280;19550;42.872;25.494;2023-07-22T11:19:44;96319.09;;;37.06;41.45
33185;BME280;19550;42.872;25.494;2023-07-22T11:22:11;96328.09;;;37.22;42.78
33185;BME280;19550;42.872;25.494;2023-07-22T11:24:38;96324.81;;;37.15;41.09
33185;BME280;19550;42.872;25.494;2023-07-22T11:27:07;96320.41;;;37.34;40.90
33185;BME280;19550;42.872;25.494;2023-07-22T11:29:34;96319.78;;;37.30;40.65
33185;BME280;19550;42.872;25.494;2023-07-22T11:32:02;96323.25;;;37.63;40.73
33185;BME280;19550;42.872;25.494;2023-07-22T11:34:30;96324.44;;;38.06;39.64
33185;BME280;19550;42.872;25.494;2023-07-22T11:36:57;96322.97;;;37.96;39.14
33185;BME280;19550;42.872;25.494;2023-07-22T11:39:25;96324.69;;;37.88;40.20
33185;BME280;19550;42.872;25.494;2023-07-22T11:41:53;96320.25;;;38.07;39.30
33185;BME280;19550;42.872;25.494;2023-07-22T11:44:22;96307.44;;;38.14;39.98
33185;BME280;19550;42.872;25.494;2023-07-22T11:46:56;96309.34;;;37.82;40.86
33185;BME280;19550;42.872;25.494;2023-07-22T11:49:27;96317.72;;;37.80;39.67
33185;BME280;19550;42.872;25.494;2023-07-22T11:51:57;96321.31;;;37.90;39.97
33185;BME280;19550;42.872;25.494;2023-07-22T11:54:24;96323.16;;;38.07;39.66
33185;BME280;19550;42.872;25.494;2023-07-22T11:56:52;96316.16;;;37.99;39.79
33185;BME280;19550;42.872;25.494;2023-07-22T11:59:32;96330.25;;;37.92;42.25
33185;BME280;19550;42.872;25.494;2023-07-22T12:02:00;96322.19;;;37.61;40.06
33185;BME280;19550;42.872;25.494;2023-07-22T12:04:27;96325.34;;;37.98;40.39
33185;BME280;19550;42.872;25.494;2023-07-22T12:06:56;96312.56;;;38.04;43.12
33185;BME280;19550;42.872;25.494;2023-07-22T12:09:23;96322.28;;;38.22;39.74
33185;BME280;19550;42.872;25.494;2023-07-22T12:11:55;96317.28;;;38.22;40.68
33185;BME280;19550;42.872;25.494;2023-07-22T12:14:23;96321.84;;;38.29;39.45
33185;BME280;19550;42.872;25.494;2023-07-22T12:16:55;96326.47;;;38.41;40.22
33185;BME280;19550;42.872;25.494;2023-07-22T12:19:23;96324.88;;;38.40;40.68
33185;BME280;19550;42.872;25.494;2023-07-22T12:21:50;96304.84;;;38.16;41.07
33185;BME280;19550;42.872;25.494;2023-07-22T12:24:18;96308.75;;;38.53;39.56
33185;BME280;19550;42.872;25.494;2023-07-22T12:26:45;96310.00;;;38.93;40.39
33185;BME280;19550;42.872;25.494;2023-07-22T12:29:12;96303.31;;;39.13;39.91
33185;BME280;19550;42.872;25.494;2023-07-22T12:31:39;96299.97;;;39.20;40.05
33185;BME280;19550;42.872;25.494;2023-07-22T12:34:05;96311.13;;;39.01;37.35
33185;BME280;19550;42.872;25.494;2023-07-22T12:36:32;96306.97;;;39.08;37.33
33185;BME280;19550;42.872;25.494;2023-07-22T12:38:59;96303.81;;;39.37;37.54
33185;BME280;19550;42.872;25.494;2023-07-22T12:41:27;96311.09;;;39.58;36.66
33185;BME280;19550;42.872;25.494;2023-07-22T12:43:54;96301.94;;;39.34;37.25
33185;BME280;19550;42.872;25.494;2023-07-22T12:46:21;96301.53;;;39.47;36.91
33185;BME280;19550;42.872;25.494;2023-07-22T12:48:48;96302.38;;;39.90;36.63
33185;BME280;19550;42.872;25.494;2023-07-22T12:51:15;96299.03;;;40.02;36.05